createdAt,value
2022-10-13T00:02:47.210Z,80.87
2022-10-13T00:07:48.873Z,80.96
2022-10-13T00:12:50.669Z,80.96
2022-10-13T00:17:53.014Z,81.21
2022-10-13T00:22:54.621Z,81.19
2022-10-13T00:27:56.197Z,81.17
2022-10-13T00:33:03.205Z,81.29
2022-10-13T00:38:04.785Z,81.47
2022-10-13T00:43:16.692Z,81.58
2022-10-13T00:48:28.622Z,81.46
2022-10-13T00:53:32.576Z,81.53
2022-10-13T00:58:35.602Z,81.55
2022-10-13T01:03:37.801Z,81.73
2022-10-13T01:08:39.517Z,81.44
2022-10-13T01:13:43.705Z,80.83
2022-10-13T01:18:55.778Z,80.71
2022-10-13T01:24:12.608Z,80.13
2022-10-13T01:29:51.634Z,79.89
2022-10-13T01:34:59.022Z,79.99
2022-10-13T01:40:27.674Z,79.79
2022-10-13T01:45:46.381Z,79.26
2022-10-13T01:50:49.342Z,79.58
2022-10-13T01:55:59.152Z,79.80
2022-10-13T02:01:24.719Z,80.09
2022-10-13T02:06:33.032Z,79.47
2022-10-13T02:11:34.681Z,79.66
2022-10-13T02:16:39.946Z,79.95
2022-10-13T02:21:41.760Z,80.47
2022-10-13T02:26:43.511Z,80.28
2022-10-13T02:31:46.327Z,80.35
2022-10-13T02:36:48.264Z,80.29
2022-10-13T02:41:50.666Z,80.24
2022-10-13T02:46:52.334Z,80.46
2022-10-13T02:51:54.101Z,80.32
2022-10-13T02:56:55.797Z,80.56
2022-10-13T03:01:57.402Z,80.50
2022-10-13T03:07:00.802Z,80.65
2022-10-13T03:12:02.620Z,80.77
2022-10-13T03:17:04.894Z,80.41
2022-10-13T03:22:06.492Z,80.63
2022-10-13T03:27:08.376Z,81.01
2022-10-13T03:32:10.044Z,81.21
2022-10-13T03:37:11.735Z,81.28
2022-10-13T03:42:16.175Z,81.25
2022-10-13T03:47:19.166Z,80.83
2022-10-13T03:52:21.766Z,81.18
2022-10-13T03:57:23.670Z,80.59
2022-10-13T04:02:28.559Z,79.95
2022-10-13T04:07:34.861Z,80.13
2022-10-13T04:12:41.495Z,80.18
2022-10-13T04:17:43.276Z,79.87
2022-10-13T04:22:44.870Z,80.08
2022-10-13T04:27:48.228Z,80.09
2022-10-13T04:32:50.144Z,80.25
2022-10-13T04:37:54.375Z,80.05
2022-10-13T04:42:56.038Z,80.24
2022-10-13T04:47:58.392Z,80.57
2022-10-13T04:53:00.072Z,80.19
2022-10-13T04:58:01.681Z,79.87
2022-10-13T05:03:03.305Z,80.25
2022-10-13T05:08:05.063Z,80.38
2022-10-13T05:13:07.167Z,80.39
2022-10-13T05:18:09.457Z,80.20
2022-10-13T05:23:11.141Z,80.60
2022-10-13T05:28:12.864Z,80.19
2022-10-13T05:33:14.623Z,80.31
2022-10-13T05:38:20.435Z,80.20
2022-10-13T05:43:26.841Z,80.21
2022-10-13T05:48:28.932Z,80.48
2022-10-13T05:53:33.769Z,80.16
2022-10-13T05:58:45.679Z,79.78
2022-10-13T06:03:48.379Z,80.04
2022-10-13T06:08:50.746Z,80.20
2022-10-13T06:13:52.414Z,79.96
2022-10-13T06:18:54.275Z,79.85
2022-10-13T06:23:56.797Z,80.29
2022-10-13T06:28:59.699Z,80.13
2022-10-13T06:34:02.102Z,80.28
2022-10-13T06:39:03.777Z,80.72
2022-10-13T06:44:05.729Z,80.37
2022-10-13T06:49:10.261Z,80.66
2022-10-13T06:54:11.854Z,80.04
2022-10-13T06:59:13.738Z,79.44
2022-10-13T07:04:19.162Z,78.74
2022-10-13T07:09:20.816Z,77.99
2022-10-13T07:14:22.505Z,76.99
2022-10-13T07:19:25.055Z,76.66
2022-10-13T07:24:27.083Z,76.08
2022-10-13T07:29:28.784Z,75.63
2022-10-13T07:34:30.514Z,74.71
2022-10-13T07:39:32.280Z,74.27
2022-10-13T07:44:33.887Z,73.82
2022-10-13T07:49:38.439Z,73.04
2022-10-13T07:54:40.074Z,72.75
2022-10-13T07:59:41.663Z,73.05
2022-10-13T08:04:47.769Z,72.37
2022-10-13T08:09:49.421Z,72.77
2022-10-13T08:14:51.450Z,72.26
2022-10-13T08:19:53.467Z,71.99
2022-10-13T08:24:58.708Z,71.38
2022-10-13T08:30:00.283Z,70.88
2022-10-13T08:35:01.905Z,71.27
2022-10-13T08:40:03.737Z,71.05
2022-10-13T08:45:39.321Z,70.64
2022-10-13T08:50:39.914Z,70.09
2022-10-13T08:56:14.124Z,69.91
2022-10-13T09:01:23.812Z,69.52
2022-10-13T09:06:29.076Z,69.77
2022-10-13T09:11:41.930Z,69.39
2022-10-13T09:16:44.527Z,69.54
2022-10-13T09:21:46.194Z,69.14
2022-10-13T09:26:50.569Z,69.44
2022-10-13T09:32:07.485Z,68.70
2022-10-13T09:37:23.523Z,68.51
2022-10-13T09:42:27.501Z,67.63
2022-10-13T09:47:33.192Z,67.37
2022-10-13T09:52:34.943Z,67.35
2022-10-13T09:57:42.752Z,66.95
2022-10-13T10:02:51.142Z,66.47
2022-10-13T10:07:53.422Z,65.54
2022-10-13T10:12:55.019Z,65.57
2022-10-13T10:18:00.834Z,64.53
2022-10-13T10:23:17.781Z,64.25
2022-10-13T10:28:47.595Z,63.71
2022-10-13T10:34:26.134Z,63.45
2022-10-13T10:39:37.240Z,63.55
2022-10-13T10:44:41.682Z,62.98
2022-10-13T10:49:43.386Z,62.69
2022-10-13T10:54:53.435Z,61.86
2022-10-13T11:00:05.992Z,61.41
2022-10-13T11:05:08.887Z,61.63
2022-10-13T11:10:13.656Z,61.42
2022-10-13T11:15:28.900Z,60.50
2022-10-13T11:20:39.563Z,60.61
2022-10-13T11:25:51.280Z,59.76
2022-10-13T11:30:55.331Z,59.59
2022-10-13T11:35:57.031Z,59.46
2022-10-13T11:41:12.398Z,58.84
2022-10-13T11:46:34.925Z,58.31
2022-10-13T11:51:58.303Z,58.01
2022-10-13T11:57:04.605Z,57.36
2022-10-13T12:02:19.383Z,56.99
2022-10-13T12:07:22.197Z,56.65
2022-10-13T12:12:24.870Z,56.27
2022-10-13T12:17:29.472Z,55.12
2022-10-13T12:22:31.412Z,55.47
2022-10-13T12:27:47.261Z,55.17
2022-10-13T12:32:53.694Z,56.29
2022-10-13T12:37:57.124Z,56.40
2022-10-13T12:43:05.343Z,55.18
2022-10-13T12:48:07.310Z,55.43
2022-10-13T12:53:08.905Z,55.37
2022-10-13T12:58:19.581Z,54.74
2022-10-13T13:03:23.501Z,54.65
2022-10-13T13:08:30.597Z,55.09
2022-10-13T13:13:32.586Z,55.11
2022-10-13T13:18:39.533Z,56.88
2022-10-13T13:23:42.101Z,58.30
2022-10-13T13:28:49.210Z,57.18
2022-10-13T13:33:50.959Z,56.89
2022-10-13T13:38:53.729Z,57.04
2022-10-13T13:43:55.316Z,57.21
2022-10-13T13:48:56.934Z,58.36
2022-10-13T13:53:58.590Z,57.76
2022-10-13T13:59:00.251Z,57.60
2022-10-13T14:04:03.091Z,58.02
2022-10-13T14:09:05.770Z,57.86
2022-10-13T14:14:07.636Z,57.13
2022-10-13T14:19:10.521Z,57.48
2022-10-13T14:24:12.419Z,57.82
2022-10-13T14:29:14.249Z,58.79
2022-10-13T14:34:15.893Z,58.77
2022-10-13T14:39:17.480Z,59.38
2022-10-13T14:44:19.172Z,59.90
2022-10-13T14:49:20.879Z,59.29
2022-10-13T14:54:23.630Z,60.01
2022-10-13T14:59:27.218Z,60.17
2022-10-13T15:04:28.844Z,60.26
2022-10-13T15:09:45.162Z,60.67
2022-10-13T15:14:52.206Z,60.82
2022-10-13T15:19:53.813Z,61.02
2022-10-13T15:24:55.769Z,61.69
2022-10-13T15:29:57.349Z,62.65
2022-10-13T15:34:59.169Z,63.04
2022-10-13T15:40:02.373Z,63.35
2022-10-13T15:45:09.985Z,63.69
2022-10-13T15:50:12.604Z,63.90
2022-10-13T15:55:14.181Z,64.58
2022-10-13T16:00:16.153Z,65.57
2022-10-13T16:05:18.572Z,66.23
2022-10-13T16:10:20.230Z,65.65
2022-10-13T16:15:21.845Z,66.08
2022-10-13T16:20:23.554Z,65.66
2022-10-13T16:25:25.468Z,66.10
2022-10-13T16:30:27.794Z,66.70
2022-10-13T16:35:29.475Z,67.33
2022-10-13T16:40:31.127Z,67.80
2022-10-13T16:45:55.038Z,68.51
2022-10-13T16:50:54.879Z,68.70
2022-10-13T16:56:00.807Z,69.17
2022-10-13T17:01:08.987Z,69.92
2022-10-13T17:06:15.090Z,70.68
2022-10-13T17:11:20.742Z,71.57
2022-10-13T17:16:22.453Z,72.18
2022-10-13T17:21:24.391Z,72.73
2022-10-13T17:26:26.071Z,73.49
2022-10-13T17:31:27.705Z,73.56
2022-10-13T17:36:34.065Z,73.95
2022-10-13T17:41:43.628Z,74.47
2022-10-13T17:46:45.241Z,75.29
2022-10-13T17:51:50.809Z,76.08
2022-10-13T17:56:54.820Z,76.53
2022-10-13T18:01:56.571Z,76.32
2022-10-13T18:06:58.213Z,76.81
2022-10-13T18:12:00.030Z,76.56
2022-10-13T18:17:02.005Z,76.18
2022-10-13T18:22:03.654Z,76.32
2022-10-13T18:27:05.255Z,76.30
2022-10-13T18:32:10.142Z,76.98
2022-10-13T18:37:11.749Z,76.92
2022-10-13T18:42:13.676Z,76.46
2022-10-13T18:47:15.361Z,76.49
2022-10-13T18:52:17.460Z,75.97
2022-10-13T18:57:19.329Z,75.85
2022-10-13T19:02:22.394Z,75.64
2022-10-13T19:07:24.089Z,75.62
2022-10-13T19:12:26.071Z,76.18
2022-10-13T19:17:27.670Z,76.28
2022-10-13T19:22:29.253Z,75.82
2022-10-13T19:27:33.515Z,76.89
2022-10-13T19:32:38.382Z,77.31
2022-10-13T19:37:40.084Z,77.68
2022-10-13T19:42:49.148Z,77.53
2022-10-13T19:47:54.595Z,77.22
2022-10-13T19:52:59.870Z,77.31
2022-10-13T19:58:09.516Z,77.76
2022-10-13T20:03:14.615Z,77.98
2022-10-13T20:08:20.955Z,77.97
2022-10-13T20:13:22.766Z,77.65
2022-10-13T20:18:29.107Z,77.86
2022-10-13T20:23:31.370Z,78.14
2022-10-13T20:28:33.295Z,79.00
2022-10-13T20:33:34.909Z,79.60
2022-10-13T20:38:36.658Z,79.88
2022-10-13T20:43:38.246Z,80.05
2022-10-13T20:49:08.713Z,80.59
2022-10-13T20:54:02.769Z,80.17
2022-10-13T20:59:06.937Z,79.54
2022-10-13T21:04:08.557Z,79.24
2022-10-13T21:09:10.417Z,79.27
2022-10-13T21:14:13.750Z,79.03
2022-10-13T21:19:15.646Z,79.10
2022-10-13T21:24:17.273Z,79.17
2022-10-13T21:29:18.846Z,79.94
2022-10-13T21:34:20.500Z,80.61
2022-10-13T21:39:22.164Z,80.88
2022-10-13T21:44:23.840Z,81.04
2022-10-13T21:49:25.442Z,81.42
2022-10-13T21:54:27.121Z,81.21
2022-10-13T21:59:28.805Z,81.27
2022-10-13T22:04:30.420Z,81.61
2022-10-13T22:09:32.487Z,82.04
2022-10-13T22:14:34.079Z,82.27
2022-10-13T22:19:35.849Z,82.62
2022-10-13T22:24:37.433Z,83.17
2022-10-13T22:29:39.020Z,83.16
2022-10-13T22:34:40.630Z,83.10
2022-10-13T22:39:42.270Z,83.03
2022-10-13T22:44:43.872Z,82.94
2022-10-13T22:49:45.463Z,82.85
2022-10-13T22:54:51.626Z,82.83
2022-10-13T22:59:53.198Z,82.63
2022-10-13T23:04:54.777Z,82.72
2022-10-13T23:09:56.373Z,83.19
2022-10-13T23:14:58.015Z,83.71
2022-10-13T23:19:59.603Z,83.84
2022-10-13T23:25:01.589Z,83.92
2022-10-13T23:30:04.058Z,83.66
2022-10-13T23:35:06.010Z,83.79
2022-10-13T23:40:08.203Z,84.10
2022-10-13T23:45:10.127Z,83.67
2022-10-13T23:50:11.830Z,83.42
2022-10-13T23:55:13.873Z,83.43
